createdAt,value
2018-08-06T00:01:24.535Z,18.40
2018-08-06T00:03:52.633Z,18.40
2018-08-06T00:06:20.747Z,18.40
2018-08-06T00:08:48.871Z,18.50
2018-08-06T00:11:16.955Z,18.50
2018-08-06T00:13:45.310Z,18.40
2018-08-06T00:16:13.407Z,18.40
2018-08-06T00:18:41.513Z,18.40
2018-08-06T00:21:09.653Z,18.40
2018-08-06T00:23:37.755Z,18.40
2018-08-06T00:26:05.850Z,18.30
2018-08-06T00:28:33.971Z,18.30
2018-08-06T00:31:02.069Z,18.30
2018-08-06T00:33:30.161Z,18.40
2018-08-06T00:35:58.260Z,18.30
2018-08-06T00:38:26.379Z,18.30
2018-08-06T00:40:54.486Z,18.40
2018-08-06T00:43:22.567Z,18.40
2018-08-06T00:45:50.650Z,18.40
2018-08-06T00:48:18.760Z,18.40
2018-08-06T00:50:46.830Z,18.30
2018-08-06T00:53:14.948Z,18.20
2018-08-06T00:55:43.034Z,18.30
2018-08-06T00:58:11.159Z,18.20
2018-08-06T01:00:39.242Z,18.20
2018-08-06T01:03:07.392Z,18.10
2018-08-06T01:05:35.475Z,18.10
2018-08-06T01:08:03.602Z,18.10
2018-08-06T01:10:31.714Z,18.20
2018-08-06T01:12:59.833Z,18.20
2018-08-06T01:15:27.943Z,18.20
2018-08-06T01:17:56.054Z,18.20
2018-08-06T01:20:24.176Z,18.20
2018-08-06T01:22:52.438Z,18.20
2018-08-06T01:25:20.539Z,18.20
2018-08-06T01:27:48.655Z,18.20
2018-08-06T01:30:16.764Z,18.20
2018-08-06T01:32:44.903Z,18.20
2018-08-06T01:35:13.067Z,18.20
2018-08-06T01:37:41.186Z,18.20
2018-08-06T01:40:11.714Z,18.20
2018-08-06T01:42:40.046Z,18.10
2018-08-06T01:45:08.483Z,18.00
2018-08-06T01:47:37.711Z,18.00
2018-08-06T01:50:06.392Z,18.00
2018-08-06T01:52:34.482Z,17.90
2018-08-06T01:55:02.611Z,17.90
2018-08-06T01:57:30.703Z,17.90
2018-08-06T01:59:58.822Z,17.90
2018-08-06T02:02:26.910Z,17.80
2018-08-06T02:04:55.008Z,17.80
2018-08-06T02:07:23.117Z,17.80
2018-08-06T02:09:51.293Z,17.90
2018-08-06T02:12:19.530Z,17.90
2018-08-06T02:14:47.631Z,17.90
2018-08-06T02:17:15.753Z,17.90
2018-08-06T02:19:43.866Z,17.90
2018-08-06T02:22:11.950Z,17.90
2018-08-06T02:24:40.052Z,17.80
2018-08-06T02:27:08.230Z,17.80
2018-08-06T02:29:36.350Z,17.70
2018-08-06T02:32:04.491Z,17.70
2018-08-06T02:34:32.594Z,17.60
2018-08-06T02:37:00.700Z,17.60
2018-08-06T02:39:28.830Z,17.60
2018-08-06T02:41:56.928Z,17.60
2018-08-06T02:44:25.030Z,17.60
2018-08-06T02:46:53.117Z,17.60
2018-08-06T02:49:21.218Z,17.60
2018-08-06T02:51:49.298Z,17.50
2018-08-06T02:54:17.385Z,17.50
2018-08-06T02:56:45.494Z,17.50
2018-08-06T02:59:13.646Z,17.50
2018-08-06T03:01:41.774Z,17.40
2018-08-06T03:04:09.871Z,17.30
2018-08-06T03:06:37.967Z,17.40
2018-08-06T03:09:09.734Z,17.40
2018-08-06T03:11:37.992Z,17.40
2018-08-06T03:14:06.216Z,17.50
2018-08-06T03:16:34.319Z,17.40
2018-08-06T03:19:02.423Z,17.40
2018-08-06T03:21:30.523Z,17.20
2018-08-06T03:23:58.668Z,17.20
2018-08-06T03:26:26.744Z,17.30
2018-08-06T03:28:54.838Z,17.30
2018-08-06T03:31:22.928Z,17.20
2018-08-06T03:33:51.027Z,17.20
2018-08-06T03:36:19.131Z,17.20
2018-08-06T03:38:47.244Z,17.00
2018-08-06T03:41:15.353Z,17.10
2018-08-06T03:43:43.479Z,17.10
2018-08-06T03:46:11.563Z,17.10
2018-08-06T03:48:39.678Z,17.00
2018-08-06T03:51:07.809Z,16.80
2018-08-06T03:53:35.955Z,16.60
2018-08-06T03:56:04.089Z,16.60
2018-08-06T03:58:32.170Z,16.50
2018-08-06T04:01:00.261Z,16.40
2018-08-06T04:03:28.334Z,16.30
2018-08-06T04:05:56.447Z,16.30
2018-08-06T04:08:24.548Z,16.30
2018-08-06T04:10:52.647Z,16.30
2018-08-06T04:13:20.755Z,16.40
2018-08-06T04:15:48.857Z,16.50
2018-08-06T04:18:16.979Z,16.60
2018-08-06T04:20:45.099Z,16.70
2018-08-06T04:23:13.322Z,16.80
2018-08-06T04:25:41.458Z,16.80
2018-08-06T04:30:37.423Z,16.80
2018-08-06T04:33:06.225Z,16.80
2018-08-06T04:35:34.292Z,16.80
2018-08-06T04:38:02.373Z,16.80
2018-08-06T04:40:30.489Z,16.70
2018-08-06T04:42:58.590Z,16.70
2018-08-06T04:45:26.691Z,17.20
2018-08-06T04:47:54.790Z,17.80
2018-08-06T04:50:22.882Z,17.70
2018-08-06T04:52:51.503Z,17.90
2018-08-06T04:55:19.601Z,18.50
2018-08-06T04:57:47.686Z,18.60
2018-08-06T05:00:16.117Z,18.30
2018-08-06T05:02:44.713Z,18.00
2018-08-06T05:05:12.824Z,17.90
2018-08-06T05:07:40.954Z,17.80
2018-08-06T05:10:09.046Z,17.70
2018-08-06T05:12:37.213Z,17.70
2018-08-06T05:15:05.875Z,17.70
2018-08-06T05:17:33.954Z,17.70
2018-08-06T05:20:02.063Z,17.80
2018-08-06T05:22:30.172Z,17.80
2018-08-06T05:24:58.261Z,17.80
2018-08-06T05:27:26.382Z,17.80
2018-08-06T05:29:54.487Z,17.80
2018-08-06T05:32:22.602Z,17.80
2018-08-06T05:34:50.687Z,17.80
2018-08-06T05:37:18.836Z,18.00
2018-08-06T05:42:14.874Z,18.30
2018-08-06T05:44:42.978Z,18.30
2018-08-06T05:47:11.078Z,18.30
2018-08-06T05:49:39.170Z,18.30
2018-08-06T05:52:07.700Z,18.50
2018-08-06T05:54:35.791Z,18.70
2018-08-06T05:57:03.865Z,18.70
2018-08-06T05:59:31.962Z,18.90
2018-08-06T06:02:00.054Z,19.00
2018-08-06T06:04:28.164Z,19.10
2018-08-06T06:06:56.306Z,19.30
2018-08-06T06:09:24.444Z,19.30
2018-08-06T06:11:52.585Z,19.30
2018-08-06T06:14:20.674Z,19.30
2018-08-06T06:16:48.801Z,19.40
2018-08-06T06:19:16.941Z,19.50
2018-08-06T06:21:45.048Z,19.60
2018-08-06T06:24:13.142Z,19.50
2018-08-06T06:26:41.251Z,19.40
2018-08-06T06:29:09.337Z,19.50
2018-08-06T06:31:37.432Z,19.40
2018-08-06T06:34:05.574Z,19.50
2018-08-06T06:36:33.666Z,19.60
2018-08-06T06:39:01.789Z,19.60
2018-08-06T06:41:29.915Z,19.90
2018-08-06T06:43:58.037Z,20.00
2018-08-06T06:46:26.139Z,20.10
2018-08-06T06:48:54.280Z,20.10
2018-08-06T06:51:22.351Z,20.10
2018-08-06T06:53:50.459Z,20.00
2018-08-06T06:56:18.592Z,20.10
2018-08-06T06:58:46.694Z,20.20
2018-08-06T07:01:14.811Z,20.40
2018-08-06T07:03:43.500Z,20.50
2018-08-06T07:06:11.591Z,20.60
2018-08-06T07:08:39.677Z,20.70
2018-08-06T07:11:07.778Z,20.70
2018-08-06T07:13:35.971Z,20.70
2018-08-06T07:16:04.045Z,20.70
2018-08-06T07:18:32.160Z,20.80
2018-08-06T07:21:00.269Z,20.90
2018-08-06T07:23:28.367Z,21.00
2018-08-06T07:28:30.908Z,21.10
2018-08-06T07:30:59.022Z,21.20
2018-08-06T07:33:27.145Z,21.30
2018-08-06T07:35:55.238Z,21.40
2018-08-06T07:38:23.341Z,21.50
2018-08-06T07:40:51.434Z,21.50
2018-08-06T07:43:19.577Z,21.60
2018-08-06T07:45:47.675Z,21.70
2018-08-06T07:48:15.802Z,21.90
2018-08-06T07:50:43.927Z,22.10
2018-08-06T07:53:12.025Z,22.30
2018-08-06T07:55:40.147Z,22.40
2018-08-06T07:58:08.274Z,22.50
2018-08-06T08:00:36.398Z,22.70
2018-08-06T08:03:04.529Z,22.80
2018-08-06T08:05:32.691Z,22.80
2018-08-06T08:08:00.792Z,23.00
2018-08-06T08:10:28.883Z,23.10
2018-08-06T08:12:57.006Z,23.20
2018-08-06T08:15:26.002Z,23.40
2018-08-06T08:17:55.560Z,23.60
2018-08-06T08:20:23.772Z,23.80
2018-08-06T08:22:51.812Z,24.10
2018-08-06T08:25:21.350Z,24.10
2018-08-06T08:27:49.506Z,24.30
2018-08-06T08:30:18.233Z,24.40
2018-08-06T08:32:46.335Z,24.60
2018-08-06T08:35:15.028Z,24.80
2018-08-06T08:37:43.256Z,24.80
2018-08-06T08:40:14.198Z,24.70
2018-08-06T08:42:43.031Z,24.80
2018-08-06T08:45:13.727Z,25.10
2018-08-06T08:47:42.916Z,25.20
2018-08-06T08:50:13.189Z,25.10
2018-08-06T08:52:41.619Z,25.10
2018-08-06T08:55:10.651Z,25.40
2018-08-06T08:57:39.210Z,25.50
2018-08-06T09:00:13.119Z,25.60
2018-08-06T09:02:41.696Z,25.70
2018-08-06T09:05:09.846Z,25.70
2018-08-06T09:07:38.454Z,25.80
2018-08-06T09:10:08.267Z,25.90
2018-08-06T09:12:36.391Z,26.20
2018-08-06T09:15:09.454Z,26.40
2018-08-06T09:17:37.557Z,26.90
2018-08-06T09:20:05.752Z,27.40
2018-08-06T09:22:33.892Z,27.60
2018-08-06T09:25:01.998Z,28.10
2018-08-06T09:27:30.245Z,28.40
2018-08-06T09:29:58.324Z,29.20
2018-08-06T09:32:26.423Z,30.10
2018-08-06T09:34:54.514Z,30.30
2018-08-06T09:37:22.671Z,31.40
2018-08-06T09:39:50.772Z,31.90
2018-08-06T09:42:18.882Z,32.60
2018-08-06T09:44:46.982Z,32.80
2018-08-06T09:47:15.081Z,32.50
2018-08-06T09:49:43.186Z,33.00
2018-08-06T09:52:11.275Z,33.70
2018-08-06T09:54:39.381Z,34.60
2018-08-06T09:57:07.566Z,34.10
2018-08-06T09:59:35.655Z,34.00
2018-08-06T10:02:03.731Z,34.30
2018-08-06T10:04:31.828Z,35.30
2018-08-06T10:06:59.947Z,35.80
2018-08-06T10:09:28.039Z,36.20
2018-08-06T10:11:56.175Z,36.00
2018-08-06T10:14:24.234Z,36.60
2018-08-06T10:16:52.323Z,36.80
2018-08-06T10:19:20.469Z,36.40
2018-08-06T10:21:48.550Z,36.80
2018-08-06T10:24:16.631Z,36.10
2018-08-06T10:26:44.739Z,35.60
2018-08-06T10:29:12.852Z,35.90
2018-08-06T10:31:40.964Z,36.10
2018-08-06T10:34:09.063Z,37.00
2018-08-06T10:36:37.212Z,37.90
2018-08-06T10:39:08.103Z,38.30
2018-08-06T10:41:36.361Z,39.00
2018-08-06T10:44:04.506Z,38.60
2018-08-06T10:46:32.591Z,38.00
2018-08-06T10:49:00.691Z,37.50
2018-08-06T10:51:28.782Z,37.90
2018-08-06T10:53:56.931Z,37.70
2018-08-06T10:56:25.030Z,36.70
2018-08-06T10:58:53.122Z,36.40
2018-08-06T11:01:21.218Z,36.60
2018-08-06T11:03:50.207Z,37.70
2018-08-06T11:06:18.336Z,37.40
2018-08-06T11:08:46.413Z,37.80
2018-08-06T11:11:14.576Z,37.40
2018-08-06T11:13:42.694Z,38.10
2018-08-06T11:16:10.810Z,38.40
2018-08-06T11:18:42.023Z,37.90
2018-08-06T11:21:10.863Z,38.30
2018-08-06T11:23:39.070Z,38.50
2018-08-06T11:26:07.204Z,39.70
2018-08-06T11:28:35.426Z,39.80
2018-08-06T11:31:03.516Z,40.60
2018-08-06T11:33:31.723Z,39.70
2018-08-06T11:35:59.864Z,38.80
2018-08-06T11:38:27.988Z,39.10
2018-08-06T11:40:56.135Z,38.80
2018-08-06T11:43:24.260Z,39.00
2018-08-06T11:45:52.364Z,39.90
2018-08-06T11:48:20.534Z,40.20
2018-08-06T11:50:48.629Z,40.80
2018-08-06T11:53:16.721Z,41.30
2018-08-06T11:55:44.838Z,40.20
2018-08-06T11:58:12.936Z,40.20
2018-08-06T12:00:41.036Z,40.20
2018-08-06T12:03:09.137Z,40.50
2018-08-06T12:05:37.347Z,39.80
2018-08-06T12:08:05.452Z,40.10
2018-08-06T12:10:33.577Z,39.10
2018-08-06T12:13:01.673Z,39.30
2018-08-06T12:15:29.778Z,39.40
2018-08-06T12:17:57.878Z,39.30
2018-08-06T12:20:26.020Z,39.60
2018-08-06T12:22:54.103Z,40.80
2018-08-06T12:25:22.219Z,39.90
2018-08-06T12:27:50.479Z,39.90
2018-08-06T12:30:19.898Z,40.90
2018-08-06T12:32:48.815Z,41.30
2018-08-06T12:35:17.474Z,41.20
2018-08-06T12:37:46.210Z,41.80
2018-08-06T12:40:15.595Z,42.10
2018-08-06T12:42:43.771Z,41.50
2018-08-06T12:45:12.730Z,41.70
2018-08-06T12:47:41.062Z,41.60
2018-08-06T12:50:10.464Z,41.70
2018-08-06T12:52:39.498Z,41.30
2018-08-06T12:55:09.324Z,40.90
2018-08-06T12:57:37.806Z,40.90
2018-08-06T13:00:12.157Z,41.30
2018-08-06T13:02:40.254Z,41.90
2018-08-06T13:05:08.421Z,41.70
2018-08-06T13:07:36.478Z,41.20
2018-08-06T13:10:06.154Z,40.50
2018-08-06T13:12:34.633Z,39.90
2018-08-06T13:15:02.740Z,39.80
2018-08-06T13:17:31.903Z,39.70
2018-08-06T13:20:00.582Z,39.40
2018-08-06T13:22:28.726Z,39.40
2018-08-06T13:24:56.856Z,39.50
2018-08-06T13:27:24.958Z,39.20
2018-08-06T13:29:53.636Z,38.00
2018-08-06T13:32:21.826Z,36.90
2018-08-06T13:34:49.928Z,37.00
2018-08-06T13:37:18.031Z,35.70
2018-08-06T13:39:46.178Z,35.40
2018-08-06T13:42:14.297Z,35.10
2018-08-06T13:44:42.485Z,34.40
2018-08-06T13:47:10.590Z,34.30
2018-08-06T13:52:06.587Z,33.90
2018-08-06T13:54:34.685Z,33.70
2018-08-06T13:57:03.089Z,33.50
2018-08-06T13:59:31.276Z,33.60
2018-08-06T14:01:59.375Z,33.50
2018-08-06T14:04:27.478Z,33.50
2018-08-06T14:06:55.592Z,33.30
2018-08-06T14:09:24.458Z,33.30
2018-08-06T14:11:52.540Z,33.30
2018-08-06T14:14:21.631Z,33.20
2018-08-06T14:16:49.746Z,33.30
2018-08-06T14:19:17.864Z,33.10
2018-08-06T14:21:46.522Z,32.90
2018-08-06T14:24:15.258Z,33.00
2018-08-06T14:26:43.367Z,32.90
2018-08-06T14:29:11.461Z,32.90
2018-08-06T14:31:39.869Z,32.80
2018-08-06T14:34:08.008Z,32.60
2018-08-06T14:36:36.065Z,32.60
2018-08-06T14:39:07.618Z,32.50
2018-08-06T14:41:35.747Z,32.50
2018-08-06T14:44:05.251Z,32.50
2018-08-06T14:46:33.409Z,32.50
2018-08-06T14:49:01.632Z,32.50
2018-08-06T14:51:29.736Z,32.30
2018-08-06T14:53:57.840Z,32.10
2018-08-06T14:56:25.953Z,32.00
2018-08-06T14:58:54.058Z,31.90
2018-08-06T15:01:22.184Z,32.00
2018-08-06T15:03:50.751Z,31.80
2018-08-06T15:06:18.903Z,32.00
2018-08-06T15:08:47.013Z,31.80
2018-08-06T15:11:15.143Z,31.70
2018-08-06T15:13:43.463Z,31.50
2018-08-06T15:16:11.602Z,31.40
2018-08-06T15:18:40.344Z,31.40
2018-08-06T15:21:08.492Z,31.30
2018-08-06T15:23:36.587Z,31.20
2018-08-06T15:26:04.797Z,30.90
2018-08-06T15:28:32.900Z,30.90
2018-08-06T15:31:01.029Z,30.80
2018-08-06T15:33:29.158Z,31.00
2018-08-06T15:35:57.261Z,30.90
2018-08-06T15:38:25.378Z,30.80
2018-08-06T15:40:53.503Z,30.80
2018-08-06T15:43:21.656Z,30.60
2018-08-06T15:45:49.739Z,30.30
2018-08-06T15:48:17.878Z,30.20
2018-08-06T15:50:45.991Z,30.10
2018-08-06T15:53:14.094Z,30.10
2018-08-06T15:55:42.222Z,30.20
2018-08-06T15:58:10.342Z,30.10
2018-08-06T16:00:38.455Z,30.10
2018-08-06T16:03:06.694Z,30.00
2018-08-06T16:05:34.809Z,30.00
2018-08-06T16:08:02.904Z,29.90
2018-08-06T16:10:31.013Z,29.90
2018-08-06T16:12:59.156Z,29.70
2018-08-06T16:15:27.275Z,29.60
2018-08-06T16:17:55.389Z,29.50
2018-08-06T16:20:23.511Z,29.30
2018-08-06T16:22:51.858Z,29.20
2018-08-06T16:25:19.995Z,29.10
2018-08-06T16:27:54.714Z,29.10
2018-08-06T16:32:52.179Z,29.00
2018-08-06T16:35:21.847Z,28.80
2018-08-06T16:37:51.181Z,28.80
2018-08-06T16:40:19.349Z,28.80
2018-08-06T16:42:48.099Z,28.80
2018-08-06T16:45:16.248Z,28.70
2018-08-06T16:47:44.386Z,28.70
2018-08-06T16:50:14.142Z,28.60
2018-08-06T16:52:42.387Z,28.50
2018-08-06T16:55:10.939Z,28.40
2018-08-06T16:57:39.703Z,28.30
2018-08-06T17:00:16.881Z,28.30
2018-08-06T17:02:45.365Z,28.30
2018-08-06T17:05:14.144Z,28.30
2018-08-06T17:07:43.555Z,28.30
2018-08-06T17:10:13.982Z,28.20
2018-08-06T17:12:43.538Z,28.10
2018-08-06T17:15:13.098Z,28.00
2018-08-06T17:17:41.380Z,27.90
2018-08-06T17:20:13.409Z,27.90
2018-08-06T17:22:41.560Z,27.70
2018-08-06T17:25:10.911Z,27.70
2018-08-06T17:27:39.592Z,27.60
2018-08-06T17:30:08.024Z,27.60
2018-08-06T17:32:37.165Z,27.60
2018-08-06T17:35:06.216Z,27.60
2018-08-06T17:37:34.655Z,27.50
2018-08-06T17:40:02.819Z,27.40
2018-08-06T17:42:31.010Z,27.20
2018-08-06T17:44:59.173Z,27.20
2018-08-06T17:47:27.380Z,27.10
2018-08-06T17:49:55.484Z,27.10
2018-08-06T17:52:23.630Z,27.00
2018-08-06T17:54:51.779Z,26.90
2018-08-06T17:57:19.961Z,26.80
2018-08-06T17:59:48.216Z,26.70
2018-08-06T18:02:16.354Z,26.70
2018-08-06T18:04:44.556Z,26.60
2018-08-06T18:07:12.910Z,26.50
2018-08-06T18:09:42.228Z,26.40
2018-08-06T18:12:10.331Z,26.30
2018-08-06T18:14:38.514Z,26.30
2018-08-06T18:17:06.633Z,26.20
2018-08-06T18:19:34.806Z,26.10
2018-08-06T18:22:02.997Z,26.10
2018-08-06T18:24:31.142Z,26.00
2018-08-06T18:26:59.233Z,25.90
2018-08-06T18:29:27.378Z,25.80
2018-08-06T18:31:55.517Z,25.70
2018-08-06T18:34:23.647Z,25.60
2018-08-06T18:36:52.611Z,25.40
2018-08-06T18:39:21.091Z,25.30
2018-08-06T18:41:52.475Z,25.10
2018-08-06T18:44:21.945Z,25.00
2018-08-06T18:46:50.314Z,25.00
2018-08-06T18:49:18.994Z,24.80
2018-08-06T18:51:47.268Z,24.70
2018-08-06T18:54:15.984Z,24.80
2018-08-06T18:56:44.115Z,24.80
2018-08-06T18:59:12.443Z,24.70
2018-08-06T19:01:40.556Z,24.60
2018-08-06T19:04:08.765Z,24.60
2018-08-06T19:06:36.878Z,24.60
2018-08-06T19:09:13.040Z,24.60
2018-08-06T19:11:41.773Z,24.50
2018-08-06T19:14:18.230Z,24.40
2018-08-06T19:16:47.893Z,24.30
2018-08-06T19:19:21.502Z,24.30
2018-08-06T19:21:50.693Z,24.20
2018-08-06T19:24:24.674Z,24.20
2018-08-06T19:26:52.933Z,24.10
2018-08-06T19:29:21.135Z,24.10
2018-08-06T19:31:49.363Z,24.00
2018-08-06T19:34:17.487Z,24.00
2018-08-06T19:36:50.955Z,23.90
2018-08-06T19:39:19.117Z,23.90
2018-08-06T19:41:47.371Z,23.80
2018-08-06T19:44:15.607Z,23.80
2018-08-06T19:46:43.758Z,23.80
2018-08-06T19:49:17.418Z,23.80
2018-08-06T19:51:45.536Z,23.70
2018-08-06T19:54:13.669Z,23.70
2018-08-06T19:56:41.810Z,23.60
2018-08-06T19:59:10.577Z,23.60
2018-08-06T20:01:38.673Z,23.60
2018-08-06T20:04:07.301Z,23.60
2018-08-06T20:06:35.404Z,23.50
2018-08-06T20:09:05.448Z,23.50
2018-08-06T20:11:33.765Z,23.50
2018-08-06T20:14:01.965Z,23.40
2018-08-06T20:16:29.993Z,23.40
2018-08-06T20:18:58.098Z,23.30
2018-08-06T20:21:26.386Z,23.30
2018-08-06T20:23:54.495Z,23.30
2018-08-06T20:26:22.613Z,23.30
2018-08-06T20:28:50.758Z,23.20
2018-08-06T20:31:18.899Z,23.20
2018-08-06T20:33:47.482Z,23.20
2018-08-06T20:36:15.620Z,23.10
2018-08-06T20:38:43.861Z,23.10
2018-08-06T20:41:12.014Z,23.10
2018-08-06T20:43:40.138Z,23.00
2018-08-06T20:46:08.259Z,23.00
2018-08-06T20:48:36.367Z,22.90
2018-08-06T20:51:04.487Z,22.90
2018-08-06T20:53:32.598Z,22.90
2018-08-06T20:56:00.668Z,22.80
2018-08-06T20:58:28.771Z,22.80
2018-08-06T21:00:56.894Z,22.80
2018-08-06T21:03:24.974Z,22.80
2018-08-06T21:05:53.137Z,22.70
2018-08-06T21:08:21.243Z,22.70
2018-08-06T21:10:49.338Z,22.70
2018-08-06T21:13:17.474Z,22.60
2018-08-06T21:15:45.583Z,22.60
2018-08-06T21:18:13.712Z,22.60
2018-08-06T21:20:41.803Z,22.50
2018-08-06T21:23:09.900Z,22.50
2018-08-06T21:25:38.015Z,22.50
2018-08-06T21:28:06.131Z,22.50
2018-08-06T21:33:02.113Z,22.50
2018-08-06T21:35:30.232Z,22.30
2018-08-06T21:37:58.344Z,22.30
2018-08-06T21:40:27.028Z,22.30
2018-08-06T21:42:55.144Z,22.30
2018-08-06T21:45:23.308Z,22.30
2018-08-06T21:47:51.481Z,22.30
2018-08-06T21:50:19.601Z,22.30
2018-08-06T21:52:47.730Z,22.20
2018-08-06T21:55:15.845Z,22.20
2018-08-06T21:57:43.962Z,22.20
2018-08-06T22:00:20.944Z,22.20
2018-08-06T22:02:49.039Z,22.20
2018-08-06T22:05:17.113Z,22.10
2018-08-06T22:07:45.223Z,22.10
2018-08-06T22:10:13.427Z,22.10
2018-08-06T22:12:41.523Z,22.00
2018-08-06T22:15:09.639Z,22.00
2018-08-06T22:17:38.262Z,22.00
2018-08-06T22:20:06.390Z,22.00
2018-08-06T22:22:34.530Z,22.00
2018-08-06T22:25:02.696Z,21.90
2018-08-06T22:27:30.798Z,21.90
2018-08-06T22:29:59.131Z,21.80
2018-08-06T22:32:27.241Z,21.80
2018-08-06T22:35:02.125Z,21.80
2018-08-06T22:37:30.226Z,21.80
2018-08-06T22:39:58.325Z,21.80
2018-08-06T22:42:26.444Z,21.80
2018-08-06T22:44:54.557Z,21.80
2018-08-06T22:47:22.671Z,21.80
2018-08-06T22:49:50.782Z,21.70
2018-08-06T22:52:18.919Z,21.70
2018-08-06T22:54:47.047Z,21.70
2018-08-06T22:57:15.160Z,21.70
2018-08-06T22:59:43.243Z,21.60
2018-08-06T23:02:11.392Z,21.60
2018-08-06T23:04:39.687Z,21.60
2018-08-06T23:07:07.783Z,21.60
2018-08-06T23:09:35.886Z,21.50
2018-08-06T23:12:04.008Z,21.50
2018-08-06T23:14:32.087Z,21.40
2018-08-06T23:17:00.185Z,21.40
2018-08-06T23:19:28.277Z,21.40
2018-08-06T23:21:56.544Z,21.50
2018-08-06T23:24:24.635Z,21.40
2018-08-06T23:26:53.710Z,21.40
2018-08-06T23:29:21.809Z,21.40
2018-08-06T23:31:49.934Z,21.40
2018-08-06T23:34:18.027Z,21.30
2018-08-06T23:36:46.135Z,21.40
2018-08-06T23:39:14.247Z,21.40
2018-08-06T23:41:42.367Z,21.30
2018-08-06T23:44:10.459Z,21.30
2018-08-06T23:46:38.587Z,21.30
2018-08-06T23:49:06.694Z,21.20
2018-08-06T23:51:34.937Z,21.20
2018-08-06T23:54:03.026Z,21.20
2018-08-06T23:56:31.083Z,21.20
2018-08-06T23:58:59.153Z,21.20
